sensor_id;sensor_type;location;lat;lon;timestamp;P1;durP1;ratioP1;P2;durP2;ratioP2
4704;SDS011;2366;51.332;6.610;2023-06-24T00:00:55;10.07;;;8.15;;
4704;SDS011;2366;51.332;6.610;2023-06-24T00:03:21;7.93;;;6.90;;
4704;SDS011;2366;51.332;6.610;2023-06-24T00:05:46;8.83;;;7.13;;
4704;SDS011;2366;51.332;6.610;2023-06-24T00:08:14;9.80;;;8.05;;
4704;SDS011;2366;51.332;6.610;2023-06-24T00:10:42;10.77;;;7.55;;
4704;SDS011;2366;51.332;6.610;2023-06-24T00:13:08;10.63;;;7.38;;
4704;SDS011;2366;51.332;6.610;2023-06-24T00:15:33;11.33;;;6.93;;
4704;SDS011;2366;51.332;6.610;2023-06-24T00:17:59;10.00;;;7.47;;
4704;SDS011;2366;51.332;6.610;2023-06-24T00:20:30;8.38;;;7.47;;
4704;SDS011;2366;51.332;6.610;2023-06-24T00:22:55;10.27;;;7.87;;
4704;SDS011;2366;51.332;6.610;2023-06-24T00:25:21;12.47;;;8.57;;
4704;SDS011;2366;51.332;6.610;2023-06-24T00:27:46;8.23;;;7.40;;
4704;SDS011;2366;51.332;6.610;2023-06-24T00:30:12;11.03;;;8.33;;
4704;SDS011;2366;51.332;6.610;2023-06-24T00:32:37;12.70;;;8.10;;
4704;SDS011;2366;51.332;6.610;2023-06-24T00:35:03;9.43;;;7.00;;
4704;SDS011;2366;51.332;6.610;2023-06-24T00:37:28;13.40;;;8.20;;
4704;SDS011;2366;51.332;6.610;2023-06-24T00:39:54;11.30;;;7.83;;
4704;SDS011;2366;51.332;6.610;2023-06-24T00:42:19;8.07;;;7.27;;
4704;SDS011;2366;51.332;6.610;2023-06-24T00:44:44;9.73;;;8.23;;
4704;SDS011;2366;51.332;6.610;2023-06-24T00:47:10;8.80;;;7.90;;
4704;SDS011;2366;51.332;6.610;2023-06-24T00:49:36;8.17;;;7.37;;
4704;SDS011;2366;51.332;6.610;2023-06-24T00:52:01;9.10;;;7.67;;
4704;SDS011;2366;51.332;6.610;2023-06-24T00:54:27;9.27;;;7.17;;
4704;SDS011;2366;51.332;6.610;2023-06-24T00:56:56;10.10;;;7.93;;
4704;SDS011;2366;51.332;6.610;2023-06-24T00:59:25;10.10;;;8.23;;
4704;SDS011;2366;51.332;6.610;2023-06-24T01:01:57;10.30;;;8.30;;
4704;SDS011;2366;51.332;6.610;2023-06-24T01:04:29;11.18;;;8.60;;
4704;SDS011;2366;51.332;6.610;2023-06-24T01:06:55;10.30;;;8.27;;
4704;SDS011;2366;51.332;6.610;2023-06-24T01:09:22;11.05;;;8.50;;
4704;SDS011;2366;51.332;6.610;2023-06-24T01:11:48;9.15;;;7.78;;
4704;SDS011;2366;51.332;6.610;2023-06-24T01:14:13;11.97;;;8.63;;
4704;SDS011;2366;51.332;6.610;2023-06-24T01:16:53;10.93;;;7.47;;
4704;SDS011;2366;51.332;6.610;2023-06-24T01:19:51;13.82;;;8.48;;
4704;SDS011;2366;51.332;6.610;2023-06-24T01:25:24;18.52;;;8.20;;
4704;SDS011;2366;51.332;6.610;2023-06-24T01:36:25;13.05;;;8.82;;
4704;SDS011;2366;51.332;6.610;2023-06-24T01:38:55;11.13;;;8.82;;
4704;SDS011;2366;51.332;6.610;2023-06-24T01:41:40;17.35;;;8.93;;
4704;SDS011;2366;51.332;6.610;2023-06-24T01:44:09;9.45;;;8.52;;
4704;SDS011;2366;51.332;6.610;2023-06-24T01:46:38;13.18;;;9.35;;
4704;SDS011;2366;51.332;6.610;2023-06-24T01:49:05;14.73;;;9.75;;
4704;SDS011;2366;51.332;6.610;2023-06-24T01:51:34;12.00;;;8.30;;
4704;SDS011;2366;51.332;6.610;2023-06-24T01:54:02;11.95;;;8.90;;
4704;SDS011;2366;51.332;6.610;2023-06-24T01:56:31;10.15;;;8.18;;
4704;SDS011;2366;51.332;6.610;2023-06-24T01:58:58;13.82;;;8.65;;
4704;SDS011;2366;51.332;6.610;2023-06-24T02:01:26;11.80;;;9.45;;
4704;SDS011;2366;51.332;6.610;2023-06-24T02:03:52;10.25;;;9.00;;
4704;SDS011;2366;51.332;6.610;2023-06-24T02:06:20;12.13;;;9.05;;
4704;SDS011;2366;51.332;6.610;2023-06-24T02:08:49;11.93;;;9.50;;
4704;SDS011;2366;51.332;6.610;2023-06-24T02:11:17;11.55;;;9.77;;
4704;SDS011;2366;51.332;6.610;2023-06-24T02:13:56;14.80;;;9.50;;
4704;SDS011;2366;51.332;6.610;2023-06-24T02:16:24;16.40;;;10.10;;
4704;SDS011;2366;51.332;6.610;2023-06-24T02:18:51;13.07;;;9.38;;
4704;SDS011;2366;51.332;6.610;2023-06-24T02:21:17;15.52;;;8.85;;
4704;SDS011;2366;51.332;6.610;2023-06-24T02:23:44;17.08;;;11.38;;
4704;SDS011;2366;51.332;6.610;2023-06-24T02:26:11;12.13;;;10.40;;
4704;SDS011;2366;51.332;6.610;2023-06-24T02:28:37;14.48;;;9.98;;
4704;SDS011;2366;51.332;6.610;2023-06-24T02:31:04;12.00;;;9.75;;
4704;SDS011;2366;51.332;6.610;2023-06-24T02:33:31;17.65;;;10.85;;
4704;SDS011;2366;51.332;6.610;2023-06-24T02:35:56;13.13;;;9.70;;
4704;SDS011;2366;51.332;6.610;2023-06-24T02:38:22;16.80;;;10.27;;
4704;SDS011;2366;51.332;6.610;2023-06-24T02:40:47;14.17;;;11.00;;
4704;SDS011;2366;51.332;6.610;2023-06-24T02:43:14;14.20;;;11.00;;
4704;SDS011;2366;51.332;6.610;2023-06-24T02:45:39;11.90;;;9.70;;
4704;SDS011;2366;51.332;6.610;2023-06-24T02:48:06;14.18;;;9.93;;
4704;SDS011;2366;51.332;6.610;2023-06-24T02:50:34;13.98;;;10.45;;
4704;SDS011;2366;51.332;6.610;2023-06-24T02:53:00;17.30;;;10.85;;
4704;SDS011;2366;51.332;6.610;2023-06-24T02:55:26;14.85;;;10.32;;
4704;SDS011;2366;51.332;6.610;2023-06-24T02:57:53;17.17;;;11.65;;
4704;SDS011;2366;51.332;6.610;2023-06-24T03:00:18;12.50;;;10.80;;
4704;SDS011;2366;51.332;6.610;2023-06-24T03:02:45;15.07;;;11.10;;
4704;SDS011;2366;51.332;6.610;2023-06-24T03:05:12;26.98;;;12.38;;
4704;SDS011;2366;51.332;6.610;2023-06-24T03:07:39;13.90;;;10.50;;
4704;SDS011;2366;51.332;6.610;2023-06-24T03:10:05;14.30;;;9.82;;
4704;SDS011;2366;51.332;6.610;2023-06-24T03:12:31;14.20;;;10.23;;
4704;SDS011;2366;51.332;6.610;2023-06-24T03:14:57;14.33;;;10.53;;
4704;SDS011;2366;51.332;6.610;2023-06-24T03:17:22;14.27;;;11.50;;
4704;SDS011;2366;51.332;6.610;2023-06-24T03:19:49;12.85;;;10.82;;
4704;SDS011;2366;51.332;6.610;2023-06-24T03:22:15;20.57;;;9.93;;
4704;SDS011;2366;51.332;6.610;2023-06-24T03:24:42;14.45;;;11.57;;
4704;SDS011;2366;51.332;6.610;2023-06-24T03:27:07;11.10;;;9.80;;
4704;SDS011;2366;51.332;6.610;2023-06-24T03:29:33;14.53;;;11.33;;
4704;SDS011;2366;51.332;6.610;2023-06-24T03:31:58;16.53;;;11.23;;
4704;SDS011;2366;51.332;6.610;2023-06-24T03:34:23;16.27;;;12.60;;
4704;SDS011;2366;51.332;6.610;2023-06-24T03:36:50;18.02;;;11.75;;
4704;SDS011;2366;51.332;6.610;2023-06-24T03:39:16;16.63;;;12.50;;
4704;SDS011;2366;51.332;6.610;2023-06-24T03:41:41;15.23;;;12.23;;
4704;SDS011;2366;51.332;6.610;2023-06-24T03:44:06;15.27;;;12.10;;
4704;SDS011;2366;51.332;6.610;2023-06-24T03:46:32;13.97;;;11.27;;
4704;SDS011;2366;51.332;6.610;2023-06-24T03:48:58;21.40;;;11.70;;
4704;SDS011;2366;51.332;6.610;2023-06-24T03:51:25;20.90;;;12.52;;
4704;SDS011;2366;51.332;6.610;2023-06-24T03:53:50;14.27;;;10.67;;
4704;SDS011;2366;51.332;6.610;2023-06-24T03:56:16;23.53;;;11.27;;
4704;SDS011;2366;51.332;6.610;2023-06-24T03:58:42;20.50;;;12.40;;
4704;SDS011;2366;51.332;6.610;2023-06-24T04:01:07;21.17;;;12.30;;
4704;SDS011;2366;51.332;6.610;2023-06-24T04:03:34;14.50;;;10.80;;
4704;SDS011;2366;51.332;6.610;2023-06-24T04:06:00;15.43;;;10.93;;
4704;SDS011;2366;51.332;6.610;2023-06-24T04:08:27;15.00;;;12.05;;
4704;SDS011;2366;51.332;6.610;2023-06-24T04:10:56;19.05;;;10.63;;
4704;SDS011;2366;51.332;6.610;2023-06-24T04:13:24;11.68;;;10.10;;
4704;SDS011;2366;51.332;6.610;2023-06-24T04:15:50;13.50;;;9.77;;
4704;SDS011;2366;51.332;6.610;2023-06-24T04:18:15;14.10;;;10.37;;
4704;SDS011;2366;51.332;6.610;2023-06-24T04:20:41;16.80;;;10.80;;
4704;SDS011;2366;51.332;6.610;2023-06-24T04:23:06;18.40;;;10.60;;
4704;SDS011;2366;51.332;6.610;2023-06-24T04:25:34;14.20;;;9.40;;
4704;SDS011;2366;51.332;6.610;2023-06-24T04:27:59;10.30;;;9.20;;
4704;SDS011;2366;51.332;6.610;2023-06-24T04:30:25;12.27;;;8.93;;
4704;SDS011;2366;51.332;6.610;2023-06-24T04:32:50;15.23;;;8.80;;
4704;SDS011;2366;51.332;6.610;2023-06-24T04:35:15;15.60;;;9.33;;
4704;SDS011;2366;51.332;6.610;2023-06-24T04:37:41;11.67;;;8.73;;
4704;SDS011;2366;51.332;6.610;2023-06-24T04:40:06;13.73;;;9.23;;
4704;SDS011;2366;51.332;6.610;2023-06-24T04:42:32;12.70;;;8.17;;
4704;SDS011;2366;51.332;6.610;2023-06-24T04:44:57;10.47;;;8.00;;
4704;SDS011;2366;51.332;6.610;2023-06-24T04:47:23;12.97;;;8.13;;
4704;SDS011;2366;51.332;6.610;2023-06-24T04:49:48;9.83;;;7.83;;
4704;SDS011;2366;51.332;6.610;2023-06-24T04:52:13;13.50;;;8.67;;
4704;SDS011;2366;51.332;6.610;2023-06-24T04:54:39;13.93;;;8.80;;
4704;SDS011;2366;51.332;6.610;2023-06-24T04:57:06;12.83;;;8.23;;
4704;SDS011;2366;51.332;6.610;2023-06-24T04:59:33;18.80;;;8.53;;
4704;SDS011;2366;51.332;6.610;2023-06-24T05:01:58;10.00;;;7.40;;
4704;SDS011;2366;51.332;6.610;2023-06-24T05:04:24;12.00;;;7.20;;
4704;SDS011;2366;51.332;6.610;2023-06-24T05:06:49;8.30;;;7.47;;
4704;SDS011;2366;51.332;6.610;2023-06-24T05:09:14;14.23;;;6.87;;
4704;SDS011;2366;51.332;6.610;2023-06-24T05:11:40;13.53;;;7.70;;
4704;SDS011;2366;51.332;6.610;2023-06-24T05:14:06;8.20;;;6.40;;
4704;SDS011;2366;51.332;6.610;2023-06-24T05:16:31;9.37;;;7.13;;
4704;SDS011;2366;51.332;6.610;2023-06-24T05:18:57;8.57;;;7.20;;
4704;SDS011;2366;51.332;6.610;2023-06-24T05:21:22;7.93;;;7.17;;
4704;SDS011;2366;51.332;6.610;2023-06-24T05:23:48;8.67;;;6.57;;
4704;SDS011;2366;51.332;6.610;2023-06-24T05:26:13;12.20;;;7.40;;
4704;SDS011;2366;51.332;6.610;2023-06-24T05:28:39;11.43;;;7.37;;
4704;SDS011;2366;51.332;6.610;2023-06-24T05:31:25;10.10;;;6.70;;
4704;SDS011;2366;51.332;6.610;2023-06-24T05:33:50;14.23;;;9.00;;
4704;SDS011;2366;51.332;6.610;2023-06-24T05:36:15;12.50;;;6.90;;
4704;SDS011;2366;51.332;6.610;2023-06-24T05:38:41;14.50;;;7.30;;
4704;SDS011;2366;51.332;6.610;2023-06-24T05:41:06;11.27;;;7.90;;
4704;SDS011;2366;51.332;6.610;2023-06-24T05:43:31;8.57;;;6.87;;
4704;SDS011;2366;51.332;6.610;2023-06-24T05:45:57;13.00;;;7.57;;
4704;SDS011;2366;51.332;6.610;2023-06-24T05:48:22;14.27;;;8.20;;
4704;SDS011;2366;51.332;6.610;2023-06-24T05:50:47;12.67;;;7.47;;
4704;SDS011;2366;51.332;6.610;2023-06-24T05:53:13;10.80;;;8.73;;
4704;SDS011;2366;51.332;6.610;2023-06-24T05:55:38;13.03;;;8.20;;
4704;SDS011;2366;51.332;6.610;2023-06-24T05:58:03;14.33;;;8.00;;
4704;SDS011;2366;51.332;6.610;2023-06-24T06:00:29;9.20;;;6.60;;
4704;SDS011;2366;51.332;6.610;2023-06-24T06:02:54;11.50;;;7.80;;
4704;SDS011;2366;51.332;6.610;2023-06-24T06:05:20;12.13;;;8.10;;
4704;SDS011;2366;51.332;6.610;2023-06-24T06:07:45;8.90;;;7.60;;
4704;SDS011;2366;51.332;6.610;2023-06-24T06:10:10;10.93;;;7.43;;
4704;SDS011;2366;51.332;6.610;2023-06-24T06:12:36;8.47;;;7.40;;
4704;SDS011;2366;51.332;6.610;2023-06-24T06:15:01;11.97;;;9.00;;
4704;SDS011;2366;51.332;6.610;2023-06-24T06:17:27;13.07;;;7.90;;
4704;SDS011;2366;51.332;6.610;2023-06-24T06:19:52;11.03;;;8.30;;
4704;SDS011;2366;51.332;6.610;2023-06-24T06:22:17;11.57;;;8.30;;
4704;SDS011;2366;51.332;6.610;2023-06-24T06:24:43;8.60;;;7.67;;
4704;SDS011;2366;51.332;6.610;2023-06-24T06:27:12;10.67;;;9.60;;
4704;SDS011;2366;51.332;6.610;2023-06-24T06:29:38;11.33;;;8.17;;
4704;SDS011;2366;51.332;6.610;2023-06-24T06:32:03;8.97;;;7.90;;
4704;SDS011;2366;51.332;6.610;2023-06-24T06:34:29;7.67;;;6.90;;
4704;SDS011;2366;51.332;6.610;2023-06-24T06:36:54;13.70;;;7.10;;
4704;SDS011;2366;51.332;6.610;2023-06-24T06:39:20;6.93;;;6.23;;
4704;SDS011;2366;51.332;6.610;2023-06-24T06:41:45;8.70;;;6.80;;
4704;SDS011;2366;51.332;6.610;2023-06-24T06:44:10;6.83;;;6.30;;
4704;SDS011;2366;51.332;6.610;2023-06-24T06:46:36;6.07;;;5.57;;
4704;SDS011;2366;51.332;6.610;2023-06-24T06:49:01;5.30;;;4.90;;
4704;SDS011;2366;51.332;6.610;2023-06-24T06:51:26;5.17;;;4.67;;
4704;SDS011;2366;51.332;6.610;2023-06-24T06:53:52;3.90;;;3.57;;
4704;SDS011;2366;51.332;6.610;2023-06-24T06:56:24;4.63;;;3.53;;
4704;SDS011;2366;51.332;6.610;2023-06-24T06:58:50;3.07;;;2.87;;
4704;SDS011;2366;51.332;6.610;2023-06-24T07:01:17;3.40;;;3.10;;
4704;SDS011;2366;51.332;6.610;2023-06-24T07:03:43;2.83;;;2.63;;
4704;SDS011;2366;51.332;6.610;2023-06-24T07:06:08;3.17;;;2.97;;
4704;SDS011;2366;51.332;6.610;2023-06-24T07:08:33;2.20;;;2.10;;
4704;SDS011;2366;51.332;6.610;2023-06-24T07:11:00;4.60;;;2.63;;
4704;SDS011;2366;51.332;6.610;2023-06-24T07:13:26;2.57;;;2.37;;
4704;SDS011;2366;51.332;6.610;2023-06-24T07:15:51;3.20;;;3.00;;
4704;SDS011;2366;51.332;6.610;2023-06-24T07:18:16;2.90;;;2.70;;
4704;SDS011;2366;51.332;6.610;2023-06-24T07:20:42;3.60;;;3.30;;
4704;SDS011;2366;51.332;6.610;2023-06-24T07:23:07;2.93;;;2.73;;
4704;SDS011;2366;51.332;6.610;2023-06-24T07:25:32;2.53;;;2.37;;
4704;SDS011;2366;51.332;6.610;2023-06-24T07:27:59;3.73;;;3.43;;
4704;SDS011;2366;51.332;6.610;2023-06-24T07:30:31;3.23;;;3.03;;
4704;SDS011;2366;51.332;6.610;2023-06-24T07:32:56;2.97;;;2.77;;
4704;SDS011;2366;51.332;6.610;2023-06-24T07:35:22;3.30;;;3.00;;
4704;SDS011;2366;51.332;6.610;2023-06-24T07:37:47;5.77;;;2.60;;
4704;SDS011;2366;51.332;6.610;2023-06-24T07:40:13;2.37;;;2.17;;
4704;SDS011;2366;51.332;6.610;2023-06-24T07:42:38;2.17;;;1.97;;
4704;SDS011;2366;51.332;6.610;2023-06-24T07:45:04;5.83;;;2.53;;
4704;SDS011;2366;51.332;6.610;2023-06-24T07:47:29;2.50;;;2.30;;
4704;SDS011;2366;51.332;6.610;2023-06-24T07:49:56;2.60;;;1.90;;
4704;SDS011;2366;51.332;6.610;2023-06-24T07:52:22;3.37;;;2.83;;
4704;SDS011;2366;51.332;6.610;2023-06-24T07:54:47;3.40;;;2.30;;
4704;SDS011;2366;51.332;6.610;2023-06-24T07:57:13;2.67;;;2.47;;
4704;SDS011;2366;51.332;6.610;2023-06-24T07:59:38;2.90;;;2.70;;
4704;SDS011;2366;51.332;6.610;2023-06-24T08:02:03;3.10;;;2.80;;
4704;SDS011;2366;51.332;6.610;2023-06-24T08:04:29;4.33;;;2.37;;
4704;SDS011;2366;51.332;6.610;2023-06-24T08:06:54;2.40;;;2.20;;
4704;SDS011;2366;51.332;6.610;2023-06-24T08:09:19;2.63;;;2.43;;
4704;SDS011;2366;51.332;6.610;2023-06-24T08:11:45;2.73;;;2.53;;
4704;SDS011;2366;51.332;6.610;2023-06-24T08:14:10;2.70;;;2.50;;
4704;SDS011;2366;51.332;6.610;2023-06-24T08:16:36;2.40;;;2.20;;
4704;SDS011;2366;51.332;6.610;2023-06-24T08:19:02;4.43;;;2.90;;
4704;SDS011;2366;51.332;6.610;2023-06-24T08:21:27;3.23;;;2.97;;
4704;SDS011;2366;51.332;6.610;2023-06-24T08:23:54;4.80;;;2.93;;
4704;SDS011;2366;51.332;6.610;2023-06-24T08:26:26;3.93;;;3.50;;
4704;SDS011;2366;51.332;6.610;2023-06-24T08:28:51;3.20;;;3.00;;
4704;SDS011;2366;51.332;6.610;2023-06-24T08:31:16;3.83;;;3.43;;
4704;SDS011;2366;51.332;6.610;2023-06-24T08:33:43;5.50;;;5.00;;
4704;SDS011;2366;51.332;6.610;2023-06-24T08:36:10;7.47;;;5.63;;
4704;SDS011;2366;51.332;6.610;2023-06-24T08:38:36;4.43;;;4.03;;
4704;SDS011;2366;51.332;6.610;2023-06-24T08:41:01;4.43;;;4.03;;
4704;SDS011;2366;51.332;6.610;2023-06-24T08:43:27;5.30;;;4.80;;
4704;SDS011;2366;51.332;6.610;2023-06-24T08:45:53;5.03;;;4.63;;
4704;SDS011;2366;51.332;6.610;2023-06-24T08:48:19;8.43;;;5.43;;
4704;SDS011;2366;51.332;6.610;2023-06-24T08:50:46;6.27;;;5.67;;
4704;SDS011;2366;51.332;6.610;2023-06-24T08:53:16;6.53;;;4.73;;
4704;SDS011;2366;51.332;6.610;2023-06-24T08:55:44;6.13;;;5.40;;
4704;SDS011;2366;51.332;6.610;2023-06-24T08:58:11;4.17;;;3.60;;
4704;SDS011;2366;51.332;6.610;2023-06-24T09:00:36;5.10;;;4.70;;
4704;SDS011;2366;51.332;6.610;2023-06-24T09:03:02;5.03;;;4.10;;
4704;SDS011;2366;51.332;6.610;2023-06-24T09:05:27;4.17;;;3.40;;
4704;SDS011;2366;51.332;6.610;2023-06-24T09:07:52;5.67;;;3.90;;
4704;SDS011;2366;51.332;6.610;2023-06-24T09:10:36;4.87;;;4.30;;
4704;SDS011;2366;51.332;6.610;2023-06-24T09:13:03;3.20;;;2.90;;
4704;SDS011;2366;51.332;6.610;2023-06-24T09:15:31;4.97;;;4.00;;
4704;SDS011;2366;51.332;6.610;2023-06-24T09:17:57;4.70;;;3.60;;
4704;SDS011;2366;51.332;6.610;2023-06-24T09:20:22;6.10;;;4.20;;
4704;SDS011;2366;51.332;6.610;2023-06-24T09:22:50;3.70;;;3.40;;
4704;SDS011;2366;51.332;6.610;2023-06-24T09:25:18;4.90;;;4.13;;
4704;SDS011;2366;51.332;6.610;2023-06-24T09:27:50;3.77;;;3.50;;
4704;SDS011;2366;51.332;6.610;2023-06-24T09:30:20;4.00;;;3.40;;
4704;SDS011;2366;51.332;6.610;2023-06-24T09:32:49;4.20;;;3.90;;
4704;SDS011;2366;51.332;6.610;2023-06-24T09:35:19;4.60;;;4.03;;
4704;SDS011;2366;51.332;6.610;2023-06-24T09:37:49;5.63;;;4.60;;
4704;SDS011;2366;51.332;6.610;2023-06-24T09:40:16;3.77;;;3.30;;
4704;SDS011;2366;51.332;6.610;2023-06-24T09:42:48;4.50;;;4.10;;
4704;SDS011;2366;51.332;6.610;2023-06-24T09:45:27;4.93;;;3.23;;
4704;SDS011;2366;51.332;6.610;2023-06-24T09:47:53;3.47;;;3.13;;
4704;SDS011;2366;51.332;6.610;2023-06-24T09:50:20;4.00;;;3.60;;
4704;SDS011;2366;51.332;6.610;2023-06-24T09:52:46;3.17;;;2.97;;
4704;SDS011;2366;51.332;6.610;2023-06-24T09:55:14;4.60;;;3.60;;
4704;SDS011;2366;51.332;6.610;2023-06-24T09:57:47;11.53;;;3.73;;
4704;SDS011;2366;51.332;6.610;2023-06-24T10:00:16;3.10;;;2.60;;
4704;SDS011;2366;51.332;6.610;2023-06-24T10:02:43;2.87;;;2.60;;
4704;SDS011;2366;51.332;6.610;2023-06-24T10:05:10;3.20;;;3.00;;
4704;SDS011;2366;51.332;6.610;2023-06-24T10:07:37;5.00;;;3.57;;
4704;SDS011;2366;51.332;6.610;2023-06-24T10:10:04;2.50;;;2.30;;
4704;SDS011;2366;51.332;6.610;2023-06-24T10:12:30;9.60;;;2.17;;
4704;SDS011;2366;51.332;6.610;2023-06-24T10:14:57;1.90;;;1.80;;
4704;SDS011;2366;51.332;6.610;2023-06-24T10:17:23;2.60;;;2.40;;
4704;SDS011;2366;51.332;6.610;2023-06-24T10:19:51;2.43;;;2.23;;
4704;SDS011;2366;51.332;6.610;2023-06-24T10:22:17;2.40;;;2.20;;
4704;SDS011;2366;51.332;6.610;2023-06-24T10:24:48;1.80;;;1.70;;
4704;SDS011;2366;51.332;6.610;2023-06-24T10:27:14;3.43;;;2.83;;
4704;SDS011;2366;51.332;6.610;2023-06-24T10:29:44;2.57;;;2.10;;
4704;SDS011;2366;51.332;6.610;2023-06-24T10:32:11;2.43;;;2.23;;
4704;SDS011;2366;51.332;6.610;2023-06-24T10:44:52;3.90;;;2.57;;
4704;SDS011;2366;51.332;6.610;2023-06-24T10:47:19;4.73;;;2.83;;
4704;SDS011;2366;51.332;6.610;2023-06-24T10:49:47;3.23;;;2.53;;
4704;SDS011;2366;51.332;6.610;2023-06-24T10:52:12;6.23;;;2.50;;
4704;SDS011;2366;51.332;6.610;2023-06-24T10:54:38;4.00;;;2.53;;
4704;SDS011;2366;51.332;6.610;2023-06-24T10:57:05;2.70;;;2.50;;
4704;SDS011;2366;51.332;6.610;2023-06-24T10:59:46;3.33;;;2.73;;
4704;SDS011;2366;51.332;6.610;2023-06-24T11:02:13;4.03;;;2.67;;
4704;SDS011;2366;51.332;6.610;2023-06-24T11:04:45;2.67;;;2.47;;
4704;SDS011;2366;51.332;6.610;2023-06-24T11:07:21;2.60;;;2.40;;
4704;SDS011;2366;51.332;6.610;2023-06-24T11:09:51;2.90;;;2.40;;
4704;SDS011;2366;51.332;6.610;2023-06-24T11:12:18;3.40;;;3.10;;
4704;SDS011;2366;51.332;6.610;2023-06-24T11:14:50;2.87;;;2.43;;
4704;SDS011;2366;51.332;6.610;2023-06-24T11:17:16;3.10;;;2.40;;
4704;SDS011;2366;51.332;6.610;2023-06-24T11:19:41;7.03;;;2.33;;
4704;SDS011;2366;51.332;6.610;2023-06-24T11:22:08;4.80;;;2.20;;
4704;SDS011;2366;51.332;6.610;2023-06-24T11:24:34;3.27;;;2.77;;
4704;SDS011;2366;51.332;6.610;2023-06-24T11:27:00;3.30;;;2.00;;
4704;SDS011;2366;51.332;6.610;2023-06-24T11:29:30;4.63;;;2.20;;
4704;SDS011;2366;51.332;6.610;2023-06-24T11:31:57;2.30;;;2.10;;
4704;SDS011;2366;51.332;6.610;2023-06-24T11:34:23;1.97;;;1.83;;
4704;SDS011;2366;51.332;6.610;2023-06-24T11:36:48;4.27;;;2.37;;
4704;SDS011;2366;51.332;6.610;2023-06-24T11:39:20;3.13;;;2.20;;
4704;SDS011;2366;51.332;6.610;2023-06-24T11:41:49;2.30;;;1.83;;
4704;SDS011;2366;51.332;6.610;2023-06-24T11:44:17;3.57;;;3.10;;
4704;SDS011;2366;51.332;6.610;2023-06-24T11:46:46;2.43;;;2.20;;
4704;SDS011;2366;51.332;6.610;2023-06-24T11:49:12;3.47;;;2.70;;
4704;SDS011;2366;51.332;6.610;2023-06-24T11:51:45;3.50;;;2.17;;
4704;SDS011;2366;51.332;6.610;2023-06-24T11:54:15;2.97;;;2.30;;
4704;SDS011;2366;51.332;6.610;2023-06-24T11:56:43;2.87;;;2.30;;
4704;SDS011;2366;51.332;6.610;2023-06-24T11:59:19;2.30;;;2.00;;
4704;SDS011;2366;51.332;6.610;2023-06-24T12:01:53;8.20;;;2.40;;
4704;SDS011;2366;51.332;6.610;2023-06-24T12:04:20;2.30;;;2.10;;
4704;SDS011;2366;51.332;6.610;2023-06-24T12:06:46;2.83;;;2.33;;
4704;SDS011;2366;51.332;6.610;2023-06-24T12:09:12;1.90;;;1.60;;
4704;SDS011;2366;51.332;6.610;2023-06-24T12:11:43;2.50;;;1.67;;
4704;SDS011;2366;51.332;6.610;2023-06-24T12:14:09;2.27;;;2.07;;
4704;SDS011;2366;51.332;6.610;2023-06-24T12:16:34;2.10;;;1.67;;
4704;SDS011;2366;51.332;6.610;2023-06-24T12:19:00;2.47;;;2.27;;
4704;SDS011;2366;51.332;6.610;2023-06-24T12:21:25;2.53;;;2.33;;
4704;SDS011;2366;51.332;6.610;2023-06-24T12:23:50;1.33;;;1.23;;
4704;SDS011;2366;51.332;6.610;2023-06-24T12:26:16;2.70;;;1.90;;
4704;SDS011;2366;51.332;6.610;2023-06-24T12:28:41;2.57;;;1.60;;
4704;SDS011;2366;51.332;6.610;2023-06-24T12:31:06;1.60;;;1.50;;
4704;SDS011;2366;51.332;6.610;2023-06-24T12:33:32;2.50;;;2.00;;
4704;SDS011;2366;51.332;6.610;2023-06-24T12:35:58;2.50;;;1.93;;
4704;SDS011;2366;51.332;6.610;2023-06-24T12:38:24;2.20;;;1.60;;
4704;SDS011;2366;51.332;6.610;2023-06-24T12:40:49;2.23;;;1.77;;
4704;SDS011;2366;51.332;6.610;2023-06-24T12:43:14;1.37;;;1.27;;
4704;SDS011;2366;51.332;6.610;2023-06-24T12:45:40;3.90;;;1.57;;
4704;SDS011;2366;51.332;6.610;2023-06-24T12:48:09;1.43;;;1.33;;
4704;SDS011;2366;51.332;6.610;2023-06-24T12:50:35;3.90;;;1.93;;
4704;SDS011;2366;51.332;6.610;2023-06-24T12:53:01;3.33;;;2.10;;
4704;SDS011;2366;51.332;6.610;2023-06-24T12:55:27;2.63;;;1.90;;
4704;SDS011;2366;51.332;6.610;2023-06-24T12:57:58;2.20;;;1.53;;
4704;SDS011;2366;51.332;6.610;2023-06-24T13:00:24;3.00;;;2.50;;
4704;SDS011;2366;51.332;6.610;2023-06-24T13:02:50;2.30;;;1.97;;
4704;SDS011;2366;51.332;6.610;2023-06-24T13:05:16;2.23;;;1.97;;
4704;SDS011;2366;51.332;6.610;2023-06-24T13:07:41;3.57;;;2.70;;
4704;SDS011;2366;51.332;6.610;2023-06-24T13:10:07;2.23;;;1.90;;
4704;SDS011;2366;51.332;6.610;2023-06-24T13:12:33;2.73;;;2.27;;
4704;SDS011;2366;51.332;6.610;2023-06-24T13:14:59;2.17;;;1.70;;
4704;SDS011;2366;51.332;6.610;2023-06-24T13:17:25;4.73;;;1.83;;
4704;SDS011;2366;51.332;6.610;2023-06-24T13:19:50;3.83;;;1.73;;
4704;SDS011;2366;51.332;6.610;2023-06-24T13:22:17;2.80;;;1.77;;
4704;SDS011;2366;51.332;6.610;2023-06-24T13:24:42;11.83;;;2.63;;
4704;SDS011;2366;51.332;6.610;2023-06-24T13:27:08;1.37;;;1.27;;
4704;SDS011;2366;51.332;6.610;2023-06-24T13:29:33;45.00;;;5.10;;
4704;SDS011;2366;51.332;6.610;2023-06-24T13:31:59;1.53;;;1.33;;
4704;SDS011;2366;51.332;6.610;2023-06-24T13:34:24;1.60;;;1.50;;
4704;SDS011;2366;51.332;6.610;2023-06-24T13:36:49;3.67;;;1.77;;
4704;SDS011;2366;51.332;6.610;2023-06-24T13:39:15;1.90;;;1.70;;
4704;SDS011;2366;51.332;6.610;2023-06-24T13:41:46;1.73;;;1.63;;
4704;SDS011;2366;51.332;6.610;2023-06-24T13:44:11;1.90;;;1.23;;
4704;SDS011;2366;51.332;6.610;2023-06-24T13:46:37;3.60;;;1.60;;
4704;SDS011;2366;51.332;6.610;2023-06-24T13:49:02;2.93;;;1.97;;
4704;SDS011;2366;51.332;6.610;2023-06-24T13:51:28;1.87;;;1.70;;
4704;SDS011;2366;51.332;6.610;2023-06-24T13:53:54;3.33;;;2.00;;
4704;SDS011;2366;51.332;6.610;2023-06-24T13:56:20;1.97;;;1.53;;
4704;SDS011;2366;51.332;6.610;2023-06-24T13:58:47;1.83;;;1.73;;
4704;SDS011;2366;51.332;6.610;2023-06-24T14:01:13;2.00;;;1.20;;
4704;SDS011;2366;51.332;6.610;2023-06-24T14:03:39;1.60;;;1.50;;
4704;SDS011;2366;51.332;6.610;2023-06-24T14:06:04;2.07;;;1.50;;
4704;SDS011;2366;51.332;6.610;2023-06-24T14:08:30;2.90;;;1.60;;
4704;SDS011;2366;51.332;6.610;2023-06-24T14:10:57;1.80;;;1.70;;
4704;SDS011;2366;51.332;6.610;2023-06-24T14:13:23;3.13;;;1.53;;
4704;SDS011;2366;51.332;6.610;2023-06-24T14:15:49;5.90;;;1.83;;
4704;SDS011;2366;51.332;6.610;2023-06-24T14:18:15;1.60;;;1.50;;
4704;SDS011;2366;51.332;6.610;2023-06-24T14:20:41;1.80;;;1.60;;
4704;SDS011;2366;51.332;6.610;2023-06-24T14:23:06;2.10;;;1.30;;
4704;SDS011;2366;51.332;6.610;2023-06-24T14:25:32;2.10;;;1.60;;
4704;SDS011;2366;51.332;6.610;2023-06-24T14:27:57;2.73;;;2.17;;
4704;SDS011;2366;51.332;6.610;2023-06-24T14:30:23;7.33;;;1.70;;
4704;SDS011;2366;51.332;6.610;2023-06-24T14:32:48;2.33;;;2.13;;
4704;SDS011;2366;51.332;6.610;2023-06-24T14:35:13;1.70;;;1.60;;
4704;SDS011;2366;51.332;6.610;2023-06-24T14:37:39;5.53;;;1.80;;
4704;SDS011;2366;51.332;6.610;2023-06-24T14:40:04;1.63;;;1.33;;
4704;SDS011;2366;51.332;6.610;2023-06-24T14:42:30;2.23;;;2.00;;
4704;SDS011;2366;51.332;6.610;2023-06-24T14:44:56;2.27;;;1.77;;
4704;SDS011;2366;51.332;6.610;2023-06-24T14:47:22;3.03;;;1.73;;
4704;SDS011;2366;51.332;6.610;2023-06-24T14:49:47;2.07;;;1.87;;
4704;SDS011;2366;51.332;6.610;2023-06-24T14:52:13;1.33;;;1.20;;
4704;SDS011;2366;51.332;6.610;2023-06-24T14:54:38;2.03;;;1.70;;
4704;SDS011;2366;51.332;6.610;2023-06-24T14:57:03;2.20;;;1.50;;
4704;SDS011;2366;51.332;6.610;2023-06-24T14:59:29;1.83;;;1.50;;
4704;SDS011;2366;51.332;6.610;2023-06-24T15:01:54;1.90;;;1.73;;
4704;SDS011;2366;51.332;6.610;2023-06-24T15:04:20;2.07;;;1.87;;
4704;SDS011;2366;51.332;6.610;2023-06-24T15:06:45;1.83;;;1.40;;
4704;SDS011;2366;51.332;6.610;2023-06-24T15:09:10;2.37;;;2.17;;
4704;SDS011;2366;51.332;6.610;2023-06-24T15:11:36;3.23;;;1.40;;
4704;SDS011;2366;51.332;6.610;2023-06-24T15:14:01;3.33;;;1.67;;
4704;SDS011;2366;51.332;6.610;2023-06-24T15:16:27;3.80;;;1.80;;
4704;SDS011;2366;51.332;6.610;2023-06-24T15:18:52;2.50;;;2.30;;
4704;SDS011;2366;51.332;6.610;2023-06-24T15:21:17;1.50;;;1.40;;
4704;SDS011;2366;51.332;6.610;2023-06-24T15:23:43;2.20;;;1.60;;
4704;SDS011;2366;51.332;6.610;2023-06-24T15:26:08;1.33;;;1.20;;